Time;durP1;ratioP1;P1;durP2;ratioP2;P2;SDS_P1;SDS_P2;PMS_P1;PMS_P2;Temp;Humidity;BMP_temperature;BMP_pressure;BME280_temperature;BME280_humidity;BME280_pressure;Samples;Min_cycle;Max_cycle;Signal;HPM_P1;HPM_P2
2021/01/06 00:01:40;;;;;;;4.00;3.03;;;13.80;65.90;;;;;;5044354;28;20065;-73
2021/01/06 00:04:06;;;;;;;3.95;2.55;;;13.80;65.90;;;;;;5051322;28;20024;-74
2021/01/06 00:06:34;;;;;;;3.25;2.75;;;13.80;65.90;;;;;;5020620;28;20025;-73
2021/01/06 00:09:03;;;;;;;2.97;2.40;;;13.80;65.90;;;;;;5048267;28;20049;-74
2021/01/06 00:11:35;;;;;;;3.30;2.38;;;13.80;65.90;;;;;;5046181;28;20040;-74
2021/01/06 00:14:01;;;;;;;3.08;2.40;;;13.80;65.90;;;;;;5049139;28;20052;-74
2021/01/06 00:16:27;;;;;;;2.50;2.00;;;13.80;65.90;;;;;;5029541;28;20040;-74
2021/01/06 00:18:53;;;;;;;2.95;2.28;;;13.80;65.90;;;;;;5045638;28;20044;-74
2021/01/06 00:21:19;;;;;;;3.05;2.50;;;13.80;65.90;;;;;;5027370;28;20397;-74
2021/01/06 00:23:49;;;;;;;3.88;2.53;;;13.80;65.90;;;;;;5045085;28;20033;-74
2021/01/06 00:26:15;;;;;;;2.70;1.95;;;13.80;65.90;;;;;;5043889;28;20493;-75
2021/01/06 00:28:46;;;;;;;2.80;2.35;;;13.80;65.90;;;;;;5028018;28;20040;-74
2021/01/06 00:31:17;;;;;;;3.20;1.90;;;13.80;65.90;;;;;;5047208;28;20024;-74
2021/01/06 00:33:42;;;;;;;2.80;1.88;;;13.80;65.90;;;;;;5045712;28;20049;-74
2021/01/06 00:36:19;;;;;;;2.78;2.10;;;13.80;65.90;;;;;;5031049;28;20057;-75
2021/01/06 00:38:49;;;;;;;2.85;2.25;;;13.80;65.90;;;;;;5043128;28;21195;-76
2021/01/06 00:41:23;;;;;;;2.83;2.17;;;13.80;66.00;;;;;;5047176;28;20490;-76
2021/01/06 00:43:52;;;;;;;3.63;2.38;;;13.80;66.00;;;;;;5043077;28;20021;-76
2021/01/06 00:46:21;;;;;;;2.50;1.95;;;13.80;66.00;;;;;;5050330;28;20056;-75
2021/01/06 00:48:52;;;;;;;2.63;2.20;;;13.80;66.00;;;;;;5028469;28;20052;-75
2021/01/06 00:51:29;;;;;;;2.67;2.10;;;13.80;66.00;;;;;;5048697;28;20025;-74
2021/01/06 00:54:00;;;;;;;2.33;2.08;;;13.80;66.00;;;;;;5033363;28;20040;-74
2021/01/06 00:56:31;;;;;;;3.60;2.17;;;13.80;66.00;;;;;;5048758;28;20035;-75
2021/01/06 00:59:11;;;;;;;2.97;2.30;;;13.80;66.00;;;;;;5027447;28;20083;-74
2021/01/06 01:01:41;;;;;;;2.85;2.17;;;13.80;66.00;;;;;;5049929;28;20037;-74
2021/01/06 01:04:11;;;;;;;2.53;2.08;;;13.80;66.00;;;;;;5043209;28;20029;-74
2021/01/06 01:06:42;;;;;;;3.60;2.58;;;13.80;65.90;;;;;;5047606;28;20083;-74
2021/01/06 01:09:12;;;;;;;2.70;2.10;;;13.80;66.00;;;;;;5048119;28;20037;-74
2021/01/06 01:11:39;;;;;;;2.83;1.88;;;13.80;66.00;;;;;;5026275;28;20042;-74
2021/01/06 01:14:05;;;;;;;3.15;1.90;;;13.80;66.00;;;;;;5043871;28;20109;-73
2021/01/06 01:16:31;;;;;;;2.78;2.40;;;13.80;66.00;;;;;;5031329;28;20064;-74
2021/01/06 01:18:57;;;;;;;2.20;1.75;;;13.80;66.00;;;;;;5048856;28;20029;-73
2021/01/06 01:21:31;;;;;;;2.25;1.83;;;13.80;66.00;;;;;;5048567;28;20063;-75
2021/01/06 01:23:56;;;;;;;3.00;2.10;;;13.80;66.00;;;;;;5027444;28;20075;-74
2021/01/06 01:26:27;;;;;;;2.70;2.33;;;13.80;66.00;;;;;;5049970;28;20029;-75
2021/01/06 01:28:53;;;;;;;2.58;1.98;;;13.80;66.00;;;;;;5045697;28;20390;-75
2021/01/06 01:31:18;;;;;;;2.92;2.45;;;13.80;66.00;;;;;;5050275;28;20032;-74
2021/01/06 01:33:48;;;;;;;2.17;1.80;;;13.80;66.00;;;;;;5034693;28;20032;-74
2021/01/06 01:36:19;;;;;;;3.25;2.20;;;13.80;66.00;;;;;;5045036;28;20037;-76
2021/01/06 01:38:49;;;;;;;2.53;2.15;;;13.80;66.00;;;;;;5039695;28;20071;-75
2021/01/06 01:41:21;;;;;;;2.65;2.10;;;13.80;66.00;;;;;;5047120;28;20491;-74
2021/01/06 01:43:50;;;;;;;2.70;1.92;;;13.80;66.00;;;;;;5049169;28;20501;-74
2021/01/06 01:46:32;;;;;;;3.60;2.55;;;13.80;66.00;;;;;;5050353;28;20522;-74
2021/01/06 01:49:03;;;;;;;2.63;2.20;;;13.80;66.00;;;;;;5039982;28;20032;-76
2021/01/06 01:51:35;;;;;;;3.03;2.15;;;13.80;66.00;;;;;;5025443;28;20124;-74
2021/01/06 01:54:17;;;;;;;2.58;2.05;;;13.80;66.10;;;;;;5044082;28;20374;-74
2021/01/06 01:56:54;;;;;;;2.78;1.92;;;13.80;66.00;;;;;;5035949;28;20036;-76
2021/01/06 02:00:09;;;;;;;;;;;;;;;;;;;;;
2021/01/06 02:02:44;;;;;;;4.47;2.10;;;13.80;66.00;;;;;;5044377;28;20029;-74
2021/01/06 02:05:28;;;;;;;3.75;2.45;;;13.70;66.10;;;;;;5048883;28;20091;-75
2021/01/06 02:08:12;;;;;;;2.95;2.38;;;13.80;66.10;;;;;;5048257;28;20161;-75
2021/01/06 02:10:56;;;;;;;2.17;1.85;;;13.80;66.00;;;;;;5037826;28;20082;-74
2021/01/06 02:13:40;;;;;;;2.58;1.85;;;13.80;66.10;;;;;;5035292;28;20030;-74
2021/01/06 02:16:27;;;;;;;2.03;1.80;;;13.80;66.10;;;;;;5050098;28;20033;-76
2021/01/06 02:18:53;;;;;;;3.35;2.45;;;13.80;66.10;;;;;;5046639;28;20045;-75
2021/01/06 02:21:25;;;;;;;2.63;2.20;;;13.80;66.10;;;;;;5051645;28;20033;-75
2021/01/06 02:23:58;;;;;;;3.42;2.40;;;13.80;66.10;;;;;;5051716;28;20028;-74
2021/01/06 02:26:28;;;;;;;2.60;2.30;;;13.80;66.10;;;;;;5052508;28;20061;-76
2021/01/06 02:29:01;;;;;;;3.42;2.00;;;13.80;66.10;;;;;;5052435;28;20667;-75
2021/01/06 02:31:27;;;;;;;2.78;2.15;;;13.80;66.10;;;;;;5033073;28;20033;-74
2021/01/06 02:33:58;;;;;;;2.30;2.00;;;13.80;66.10;;;;;;5051382;28;20021;-75
2021/01/06 02:36:28;;;;;;;3.47;2.40;;;13.80;66.10;;;;;;5044914;28;20025;-74
2021/01/06 02:38:59;;;;;;;2.17;1.85;;;13.80;66.10;;;;;;5031629;28;20044;-74
2021/01/06 02:41:29;;;;;;;2.85;2.15;;;13.80;66.10;;;;;;5036847;28;20083;-74
2021/01/06 02:43:55;;;;;;;2.28;1.92;;;13.80;66.10;;;;;;5032266;28;20028;-75
2021/01/06 02:46:21;;;;;;;2.65;2.05;;;13.80;66.10;;;;;;5029395;28;20025;-75
2021/01/06 02:48:52;;;;;;;3.65;2.10;;;13.80;66.10;;;;;;5048487;28;20033;-74
2021/01/06 02:51:45;;;;;;;2.40;1.83;;;13.80;66.10;;;;;;5018129;28;20390;-74
2021/01/06 02:54:14;;;;;;;2.50;2.05;;;13.80;66.10;;;;;;5035664;28;20021;-74
2021/01/06 02:56:47;;;;;;;2.95;2.10;;;13.80;66.10;;;;;;5050746;28;20060;-74
2021/01/06 02:59:14;;;;;;;3.08;2.15;;;13.80;66.10;;;;;;5043028;28;20745;-75
2021/01/06 03:01:42;;;;;;;2.75;2.15;;;13.80;66.10;;;;;;5045802;28;20036;-76
2021/01/06 03:04:14;;;;;;;;;;;13.80;66.10;;;;;;5048049;28;20030;-75
2021/01/06 03:07:01;;;;;;;3.50;2.42;;;13.80;66.10;;;;;;5046551;28;19917;-76
2021/01/06 03:09:40;;;;;;;3.37;2.17;;;13.80;66.10;;;;;;5044969;28;20033;-74
2021/01/06 03:12:10;;;;;;;3.42;2.25;;;13.70;66.10;;;;;;5035203;28;20290;-74
2021/01/06 03:14:42;;;;;;;2.47;2.08;;;13.70;66.10;;;;;;5044709;28;20044;-74
2021/01/06 03:17:15;;;;;;;3.45;2.28;;;13.80;66.10;;;;;;5050625;28;20478;-76
2021/01/06 03:19:47;;;;;;;3.08;2.03;;;13.80;66.10;;;;;;5019174;28;20037;-74
2021/01/06 03:22:24;;;;;;;2.17;1.80;;;13.80;66.10;;;;;;5046493;28;20021;-74
2021/01/06 03:25:09;;;;;;;2.92;2.20;;;13.80;66.10;;;;;;5049528;28;20236;-74
2021/01/06 03:27:50;;;;;;;2.72;2.25;;;13.80;66.10;;;;;;5040267;28;20124;-74
2021/01/06 03:30:21;;;;;;;3.63;2.42;;;13.80;66.10;;;;;;5052816;28;20021;-74
2021/01/06 03:33:33;;;;;;;2.63;1.75;;;13.80;66.10;;;;;;5050316;28;20031;-78
2021/01/06 03:36:03;;;;;;;2.30;1.90;;;13.70;66.10;;;;;;5043091;28;20037;-77
2021/01/06 03:39:26;;;;;;;2.72;2.15;;;13.80;66.10;;;;;;5048455;28;20029;-75
2021/01/06 03:41:57;;;;;;;3.70;2.38;;;13.70;66.10;;;;;;4970142;28;20471;-74
2021/01/06 03:44:24;;;;;;;3.70;2.42;;;13.70;66.20;;;;;;5028122;28;20051;-74
2021/01/06 03:47:03;;;;;;;2.35;1.80;;;13.80;66.10;;;;;;5046060;28;20031;-74
2021/01/06 03:49:45;;;;;;;2.55;1.90;;;13.80;66.10;;;;;;5048170;28;20025;-74
2021/01/06 03:52:45;;;;;;;2.65;1.90;;;13.70;66.10;;;;;;5050610;28;20028;-74
2021/01/06 03:55:33;;;;;;;3.15;2.05;;;13.70;66.10;;;;;;5001987;28;20044;-74
2021/01/06 03:58:00;;;;;;;3.70;2.25;;;13.80;66.10;;;;;;5051123;28;20052;-74
2021/01/06 04:00:46;;;;;;;2.42;2.00;;;13.70;66.10;;;;;;5050645;28;20377;-75
2021/01/06 04:03:44;;;;;;;2.95;2.03;;;13.80;66.10;;;;;;5037714;28;20026;-74
2021/01/06 04:06:18;;;;;;;3.05;2.40;;;13.80;66.10;;;;;;5028033;28;20025;-75
2021/01/06 04:08:49;;;;;;;2.70;2.10;;;13.80;66.10;;;;;;5048952;28;20073;-74
2021/01/06 04:11:21;;;;;;;3.50;2.33;;;13.70;66.10;;;;;;5049077;28;20036;-75
2021/01/06 04:13:52;;;;;;;1.98;1.63;;;13.70;66.10;;;;;;5024787;28;20079;-75
2021/01/06 04:16:18;;;;;;;2.47;1.95;;;13.70;66.10;;;;;;5029416;28;20065;-75
2021/01/06 04:18:44;;;;;;;2.92;2.00;;;13.70;66.10;;;;;;5043923;28;20048;-75
2021/01/06 04:21:14;;;;;;;3.22;2.22;;;13.70;66.10;;;;;;5042308;28;20030;-75
2021/01/06 04:23:40;;;;;;;2.05;1.80;;;13.70;66.10;;;;;;5041720;28;20040;-75
2021/01/06 04:26:06;;;;;;;1.75;1.63;;;13.80;66.10;;;;;;5034786;28;20033;-75
2021/01/06 04:28:36;;;;;;;2.25;1.70;;;13.70;66.10;;;;;;5045956;28;20029;-75
2021/01/06 04:31:23;;;;;;;2.38;1.92;;;13.70;66.10;;;;;;5047371;28;20021;-74
2021/01/06 04:34:11;;;;;;;2.65;2.28;;;13.70;66.10;;;;;;5029396;28;20026;-75
2021/01/06 04:36:41;;;;;;;2.50;1.83;;;13.80;66.10;;;;;;5025423;28;20029;-75
2021/01/06 04:39:07;;;;;;;1.92;1.73;;;13.70;66.10;;;;;;5050950;28;20033;-75
2021/01/06 04:41:33;;;;;;;2.35;1.90;;;13.70;66.10;;;;;;5042823;28;20123;-75
2021/01/06 04:44:08;;;;;;;2.28;1.88;;;13.70;66.10;;;;;;5023970;28;20047;-75
2021/01/06 04:46:47;;;;;;;3.22;2.22;;;13.80;66.10;;;;;;5050371;28;20116;-74
2021/01/06 04:49:16;;;;;;;2.22;1.90;;;13.80;66.10;;;;;;5047962;28;21455;-75
2021/01/06 04:52:06;;;;;;;2.40;2.00;;;13.80;66.10;;;;;;5041009;28;20641;-74
2021/01/06 04:54:57;;;;;;;2.85;2.20;;;13.70;66.10;;;;;;5039448;28;20171;-75
2021/01/06 04:58:13;;;;;;;2.95;2.13;;;13.70;66.10;;;;;;5028809;28;20032;-75
2021/01/06 05:01:02;;;;;;;2.78;2.25;;;13.70;66.10;;;;;;5042612;28;20120;-75
2021/01/06 05:03:52;;;;;;;2.75;2.03;;;13.70;66.10;;;;;;5030074;28;20032;-75
2021/01/06 05:06:24;;;;;;;2.65;2.20;;;13.70;66.20;;;;;;5043303;28;20017;-75
2021/01/06 05:08:52;;;;;;;2.20;1.67;;;13.70;66.20;;;;;;5042335;28;20127;-75
2021/01/06 05:11:26;;;;;;;2.08;1.77;;;13.70;66.20;;;;;;5038424;28;20032;-75
2021/01/06 05:14:03;;;;;;;2.05;1.63;;;13.70;66.20;;;;;;5048179;28;20421;-75
2021/01/06 05:16:56;;;;;;;3.03;2.05;;;13.70;66.20;;;;;;5028737;28;20025;-75
2021/01/06 05:19:25;;;;;;;2.15;1.50;;;13.70;66.20;;;;;;4984282;28;20102;-75
2021/01/06 05:21:52;;;;;;;2.08;1.75;;;13.70;66.20;;;;;;4986562;28;20031;-75
2021/01/06 05:24:51;;;;;;;2.65;1.83;;;13.70;66.20;;;;;;4976505;28;20488;-76
2021/01/06 05:27:58;;;;;;;3.20;1.92;;;13.70;66.20;;;;;;4983835;28;20125;-76
2021/01/06 05:30:31;;;;;;;2.53;2.00;;;13.70;66.20;;;;;;4960145;28;20034;-76
2021/01/06 05:33:12;;;;;;;2.20;1.80;;;13.70;66.10;;;;;;4984333;28;20069;-76
2021/01/06 05:35:50;;;;;;;2.33;1.77;;;13.70;66.10;;;;;;4983204;28;20026;-76
2021/01/06 05:38:21;;;;;;;2.33;1.75;;;13.70;66.20;;;;;;4986922;28;20034;-76
2021/01/06 05:40:47;;;;;;;2.58;1.90;;;13.70;66.20;;;;;;4986106;28;20049;-78
2021/01/06 05:43:18;;;;;;;2.15;1.77;;;13.70;66.20;;;;;;4993258;28;20113;-77
2021/01/06 05:45:53;;;;;;;2.80;2.22;;;13.70;66.20;;;;;;4990094;28;20764;-75
2021/01/06 05:48:39;;;;;;;2.00;1.73;;;13.80;66.20;;;;;;4992071;28;20085;-75
2021/01/06 05:51:21;;;;;;;1.95;1.55;;;13.70;66.20;;;;;;4975722;28;20034;-75
2021/01/06 05:54:04;;;;;;;2.42;1.73;;;13.80;66.20;;;;;;4990146;28;20495;-76
2021/01/06 05:56:53;;;;;;;2.22;1.63;;;13.70;66.20;;;;;;4998803;28;20041;-75
2021/01/06 05:59:44;;;;;;;3.05;1.73;;;13.70;66.20;;;;;;5050073;28;20033;-75
2021/01/06 06:02:37;;;;;;;2.30;1.85;;;13.70;66.10;;;;;;5035297;28;20521;-75
2021/01/06 06:05:34;;;;;;;2.17;1.75;;;13.70;66.10;;;;;;5035446;28;20025;-75
2021/01/06 06:08:07;;;;;;;2.25;1.60;;;13.70;66.20;;;;;;5035553;28;20048;-75
2021/01/06 06:10:51;;;;;;;3.13;2.17;;;13.70;66.20;;;;;;5050959;28;20052;-75
2021/01/06 06:13:35;;;;;;;2.58;1.90;;;13.70;66.20;;;;;;5034552;28;20639;-74
2021/01/06 06:16:12;;;;;;;2.10;1.75;;;13.70;66.20;;;;;;5051312;28;20055;-76
2021/01/06 06:19:10;;;;;;;2.53;1.90;;;13.70;66.20;;;;;;5047093;28;20025;-75
2021/01/06 06:21:43;;;;;;;2.53;1.65;;;13.70;66.20;;;;;;5045689;28;20035;-75
2021/01/06 06:24:45;;;;;;;2.47;2.00;;;13.70;66.20;;;;;;5049906;28;20029;-75
2021/01/06 06:28:00;;;;;;;3.50;2.42;;;13.70;66.20;;;;;;4999499;28;20794;-74
2021/01/06 06:30:33;;;;;;;2.47;2.13;;;13.70;66.20;;;;;;5051840;28;20033;-75
2021/01/06 06:33:39;;;;;;;2.53;1.85;;;13.70;66.20;;;;;;5034825;28;20032;-75
2021/01/06 06:36:18;;;;;;;2.13;1.80;;;13.70;66.20;;;;;;5047018;28;20124;-75
2021/01/06 06:38:45;;;;;;;2.13;1.70;;;13.70;66.20;;;;;;5043144;28;20037;-75
2021/01/06 06:41:32;;;;;;;2.83;1.95;;;13.70;66.20;;;;;;5047756;28;20037;-75
2021/01/06 06:44:29;;;;;;;2.58;1.88;;;13.70;66.20;;;;;;5040631;28;20062;-75
2021/01/06 06:47:18;;;;;;;2.35;2.08;;;13.70;66.20;;;;;;5030004;28;20045;-75
2021/01/06 06:49:54;;;;;;;2.58;1.85;;;13.70;66.20;;;;;;5050828;28;20413;-75
2021/01/06 06:52:59;;;;;;;2.92;2.22;;;13.70;66.20;;;;;;5044724;28;20494;-75
2021/01/06 06:55:46;;;;;;;2.60;2.15;;;13.80;66.20;;;;;;5012359;28;20045;-75
2021/01/06 06:58:44;;;;;;;2.67;1.90;;;13.70;66.20;;;;;;5049367;28;20033;-75
2021/01/06 07:01:17;;;;;;;2.17;1.70;;;13.70;66.20;;;;;;5051534;28;20025;-75
2021/01/06 07:03:57;;;;;;;1.88;1.35;;;13.80;66.20;;;;;;5043254;28;20032;-76
2021/01/06 07:06:23;;;;;;;2.03;1.63;;;13.70;66.20;;;;;;5033747;28;20112;-74
2021/01/06 07:08:57;;;;;;;1.98;1.67;;;13.70;66.20;;;;;;5035441;28;20077;-74
2021/01/06 07:11:28;;;;;;;2.92;2.40;;;13.70;66.20;;;;;;5031497;28;20103;-76
2021/01/06 07:14:25;;;;;;;1.95;1.75;;;13.70;66.20;;;;;;5029165;28;20493;-74
2021/01/06 07:17:14;;;;;;;2.90;1.90;;;13.70;66.20;;;;;;5014875;28;20037;-76
2021/01/06 07:19:56;;;;;;;2.60;1.80;;;13.70;66.10;;;;;;5034540;28;20493;-75
2021/01/06 07:22:48;;;;;;;1.95;1.63;;;13.70;66.10;;;;;;5028522;28;20021;-75
2021/01/06 07:25:16;;;;;;;2.00;1.80;;;13.70;66.20;;;;;;5023095;28;20041;-76
2021/01/06 07:27:43;;;;;;;;;;;13.70;66.10;;;;;;5026466;28;20037;-75
2021/01/06 07:30:37;;;;;;;2.28;1.92;;;13.70;66.10;;;;;;5026765;28;20354;-75
2021/01/06 07:36:28;;;;;;;2.22;1.83;;;13.70;66.10;;;;;;5029012;28;20041;-75
2021/01/06 07:38:56;;;;;;;2.15;1.60;;;13.70;66.10;;;;;;5026104;28;20030;-75
2021/01/06 07:41:27;;;;;;;2.15;1.70;;;13.70;66.10;;;;;;5024445;28;20508;-75
2021/01/06 07:44:17;;;;;;;1.98;1.77;;;13.80;66.10;;;;;;5005189;28;20042;-77
2021/01/06 07:47:15;;;;;;;2.13;1.65;;;13.70;66.10;;;;;;5030832;28;20394;-75
2021/01/06 07:50:03;;;;;;;2.00;1.67;;;13.70;66.10;;;;;;5016643;28;20492;-74
2021/01/06 07:53:00;;;;;;;2.55;1.90;;;13.80;66.10;;;;;;5027155;28;20091;-75
2021/01/06 07:55:34;;;;;;;2.97;1.95;;;13.80;66.10;;;;;;5019925;28;20458;-75
2021/01/06 07:58:31;;;;;;;2.45;1.85;;;13.70;66.10;;;;;;5027159;28;20494;-75
2021/01/06 08:01:33;;;;;;;2.58;2.05;;;13.70;66.10;;;;;;5029683;28;20057;-75
2021/01/06 08:04:37;;;;;;;1.98;1.73;;;13.80;66.10;;;;;;5028600;28;20485;-75
2021/01/06 08:07:25;;;;;;;2.28;1.88;;;13.80;66.10;;;;;;5019586;28;20063;-76
2021/01/06 08:10:03;;;;;;;3.00;1.65;;;13.80;66.00;;;;;;5048321;28;20033;-76
2021/01/06 08:12:47;;;;;;;2.78;2.08;;;13.80;66.10;;;;;;5045831;28;20040;-75
2021/01/06 08:15:18;;;;;;;1.48;1.23;;;13.80;66.00;;;;;;5043817;28;20029;-75
2021/01/06 08:17:51;;;;;;;2.00;1.60;;;13.80;66.00;;;;;;5044364;28;20044;-74
2021/01/06 08:20:30;;;;;;;1.92;1.42;;;13.80;66.00;;;;;;5045925;28;20037;-75
2021/01/06 08:23:24;;;;;;;2.13;1.70;;;13.80;66.00;;;;;;5045643;28;20057;-76
2021/01/06 08:26:04;;;;;;;2.30;1.83;;;13.80;65.90;;;;;;5027556;28;20029;-77
2021/01/06 08:28:31;;;;;;;1.85;1.65;;;13.80;65.90;;;;;;5045434;28;20453;-74
2021/01/06 08:31:09;;;;;;;2.67;1.80;;;13.80;65.90;;;;;;5042354;28;20025;-76
2021/01/06 08:34:02;;;;;;;1.67;1.48;;;13.80;65.90;;;;;;5045542;28;20043;-74
2021/01/06 08:36:45;;;;;;;2.15;1.63;;;13.80;65.80;;;;;;5027616;28;20560;-74
2021/01/06 08:39:19;;;;;;;2.30;1.80;;;13.80;65.80;;;;;;5049497;28;20478;-74
2021/01/06 08:41:51;;;;;;;2.00;1.65;;;13.80;65.80;;;;;;5047737;28;20045;-75
2021/01/06 08:44:35;;;;;;;1.83;1.35;;;13.80;65.80;;;;;;5047102;28;20501;-75
2021/01/06 08:47:04;;;;;;;2.17;1.45;;;13.80;65.70;;;;;;5036025;28;20064;-75
2021/01/06 08:49:31;;;;;;;;;;;13.80;65.70;;;;;;5021032;28;20037;-74
2021/01/06 08:52:32;;;;;;;2.13;1.80;;;13.80;65.60;;;;;;5028910;28;19916;-75
2021/01/06 08:55:06;;;;;;;2.08;1.85;;;13.80;65.60;;;;;;5047239;28;20033;-74
2021/01/06 08:57:33;;;;;;;1.73;1.58;;;13.80;65.60;;;;;;5036763;28;20060;-74
2021/01/06 09:00:22;;;;;;;2.20;1.58;;;13.80;65.60;;;;;;5047783;28;20048;-74
2021/01/06 09:03:06;;;;;;;2.58;1.70;;;13.90;65.60;;;;;;5021843;28;20709;-75
2021/01/06 09:05:45;;;;;;;1.90;1.63;;;13.90;65.50;;;;;;5026736;28;20116;-76
2021/01/06 09:08:21;;;;;;;2.22;1.60;;;13.80;65.50;;;;;;5022353;28;20061;-78
2021/01/06 09:11:21;;;;;;;2.78;1.77;;;13.90;65.50;;;;;;5041021;28;20104;-76
2021/01/06 09:14:17;;;;;;;3.47;1.70;;;13.90;65.50;;;;;;5039394;28;20025;-76
2021/01/06 09:17:10;;;;;;;1.33;1.20;;;13.90;65.50;;;;;;5041204;28;20036;-75
2021/01/06 09:20:11;;;;;;;1.88;1.60;;;13.80;65.50;;;;;;5022264;28;20029;-77
2021/01/06 09:22:38;;;;;;;3.40;2.20;;;13.90;65.50;;;;;;5026471;28;20060;-75
2021/01/06 09:25:08;;;;;;;2.50;1.80;;;13.90;65.50;;;;;;5044178;28;20587;-75
2021/01/06 09:27:44;;;;;;;2.35;1.73;;;13.90;65.50;;;;;;5028082;28;20087;-76
2021/01/06 09:30:22;;;;;;;2.30;1.70;;;13.80;65.50;;;;;;5045327;28;20051;-75
2021/01/06 09:32:50;;;;;;;2.38;1.77;;;13.90;65.50;;;;;;5039846;28;20036;-76
2021/01/06 09:35:32;;;;;;;2.30;1.77;;;13.90;65.50;;;;;;5027568;28;20033;-75
2021/01/06 09:38:01;;;;;;;1.55;1.40;;;13.90;65.50;;;;;;5047720;28;20072;-79
2021/01/06 09:40:30;;;;;;;1.85;1.50;;;13.90;65.50;;;;;;5045433;28;20060;-75
2021/01/06 09:43:01;;;;;;;2.92;2.15;;;13.90;65.50;;;;;;5043982;28;20098;-75
2021/01/06 09:45:32;;;;;;;2.88;2.17;;;13.90;65.40;;;;;;5043532;28;20136;-75
2021/01/06 09:48:14;;;;;;;2.30;1.63;;;13.90;65.40;;;;;;5040521;28;20087;-76
2021/01/06 09:50:52;;;;;;;2.00;1.80;;;13.90;65.40;;;;;;5042360;28;20394;-75
2021/01/06 09:53:20;;;;;;;2.95;1.88;;;13.90;65.40;;;;;;5031199;28;20029;-76
2021/01/06 09:55:49;;;;;;;2.55;2.03;;;13.90;65.40;;;;;;5040219;28;20462;-77
2021/01/06 09:58:56;;;;;;;4.88;2.00;;;13.90;64.80;;;;;;5031589;28;20532;-75
2021/01/06 10:01:49;;;;;;;3.55;2.10;;;13.90;65.00;;;;;;5047830;28;20025;-76
2021/01/06 10:04:27;;;;;;;3.33;2.00;;;13.90;65.20;;;;;;5050661;28;20029;-74
2021/01/06 10:07:15;;;;;;;2.88;2.22;;;13.90;65.20;;;;;;5043871;28;20386;-76
2021/01/06 10:09:47;;;;;;;2.17;1.70;;;13.90;65.20;;;;;;5049003;28;20025;-78
2021/01/06 10:12:31;;;;;;;2.70;1.90;;;13.90;65.20;;;;;;5046509;28;20474;-78
2021/01/06 10:15:39;;;;;;;2.30;1.98;;;14.00;65.10;;;;;;5047850;28;20033;-78
2021/01/06 10:18:43;;;;;;;4.55;1.98;;;13.90;65.10;;;;;;5050976;28;20114;-79
2021/01/06 10:21:22;;;;;;;2.40;1.75;;;14.00;65.10;;;;;;5046492;28;20036;-78
2021/01/06 10:23:55;;;;;;;1.98;1.58;;;14.00;65.00;;;;;;5043708;28;20029;-79
2021/01/06 10:26:35;;;;;;;2.10;1.58;;;14.00;65.00;;;;;;5036680;28;20035;-76
2021/01/06 10:29:42;;;;;;;2.47;1.75;;;14.00;64.90;;;;;;5033799;28;20048;-75
2021/01/06 10:32:49;;;;;;;2.15;1.75;;;14.00;64.90;;;;;;5033067;28;20117;-76
2021/01/06 10:35:44;;;;;;;2.25;1.67;;;14.00;64.90;;;;;;5034165;28;20034;-76
2021/01/06 10:38:51;;;;;;;2.40;1.77;;;14.00;64.90;;;;;;5053333;28;20049;-76
2021/01/06 10:41:37;;;;;;;2.13;1.45;;;14.00;64.90;;;;;;5037649;28;20371;-74
2021/01/06 10:44:35;;;;;;;2.92;2.08;;;14.00;64.90;;;;;;5040434;28;20033;-73
2021/01/06 10:47:29;;;;;;;3.42;2.20;;;14.00;64.90;;;;;;5040403;28;20171;-77
2021/01/06 10:50:16;;;;;;;2.65;1.80;;;14.00;64.90;;;;;;5035888;28;20470;-75
2021/01/06 10:53:38;;;;;;;2.85;2.05;;;14.00;64.90;;;;;;5047556;28;20043;-75
2021/01/06 10:56:17;;;;;;;2.22;1.83;;;14.00;64.80;;;;;;5038293;28;20025;-76
2021/01/06 10:58:58;;;;;;;4.72;1.98;;;14.00;64.80;;;;;;5038875;28;20235;-75
2021/01/06 11:01:32;;;;;;;4.10;1.95;;;14.00;64.80;;;;;;5031362;28;20029;-75
2021/01/06 11:04:03;;;;;;;2.95;2.00;;;14.00;64.80;;;;;;5041651;28;20021;-74
2021/01/06 11:06:50;;;;;;;2.92;1.83;;;14.00;64.90;;;;;;5030763;28;20029;-74
2021/01/06 11:09:33;;;;;;;3.03;1.98;;;14.00;64.90;;;;;;5052082;28;20124;-74
2021/01/06 11:12:02;;;;;;;2.22;1.63;;;14.00;64.90;;;;;;5051138;28;20104;-74
2021/01/06 11:14:58;;;;;;;2.58;1.88;;;14.10;64.90;;;;;;5027713;28;20033;-74
2021/01/06 11:17:29;;;;;;;3.15;1.75;;;14.00;64.90;;;;;;5042305;28;20044;-74
2021/01/06 11:20:16;;;;;;;1.98;1.77;;;14.00;64.90;;;;;;5018515;28;20022;-74
2021/01/06 11:22:46;;;;;;;2.50;1.75;;;14.00;64.80;;;;;;5048982;28;20029;-75
2021/01/06 11:25:38;;;;;;;2.10;1.70;;;14.00;64.80;;;;;;5051571;28;20021;-74
2021/01/06 11:28:28;;;;;;;2.15;1.70;;;14.00;64.90;;;;;;5049668;28;20025;-74
2021/01/06 11:31:19;;;;;;;2.83;1.73;;;14.10;64.90;;;;;;5033571;28;20095;-74
2021/01/06 11:33:53;;;;;;;3.95;2.20;;;14.00;64.80;;;;;;5018759;28;20033;-74
2021/01/06 11:36:35;;;;;;;1.95;1.75;;;14.10;64.80;;;;;;5027376;28;20021;-74
2021/01/06 11:39:06;;;;;;;2.55;2.00;;;14.10;64.80;;;;;;5049196;28;20056;-74
2021/01/06 11:41:35;;;;;;;2.78;1.70;;;14.10;64.80;;;;;;5051179;28;20025;-75
2021/01/06 11:44:42;;;;;;;2.72;1.92;;;14.10;64.80;;;;;;5050599;28;20052;-74
2021/01/06 11:47:20;;;;;;;2.15;1.65;;;14.10;64.80;;;;;;5049652;28;20037;-74
2021/01/06 11:50:21;;;;;;;2.30;1.80;;;14.10;64.80;;;;;;5051902;28;20021;-74
2021/01/06 11:52:49;;;;;;;3.10;1.73;;;14.10;64.80;;;;;;5033811;28;20067;-74
2021/01/06 11:55:30;;;;;;;;;;;14.10;64.80;;;;;;5047200;28;20110;-74
2021/01/06 11:58:13;;;;;;;2.67;1.67;;;14.10;64.80;;;;;;5048769;28;19926;-74
2021/01/06 12:01:02;;;;;;;3.05;1.52;;;14.10;64.80;;;;;;5030269;28;20029;-74
2021/01/06 12:03:44;;;;;;;2.72;1.90;;;14.10;64.80;;;;;;5029470;28;20029;-74
2021/01/06 12:06:42;;;;;;;3.08;1.77;;;14.10;64.80;;;;;;5048170;28;20029;-74
2021/01/06 12:09:27;;;;;;;2.65;2.00;;;14.10;64.80;;;;;;5039647;28;20036;-74
2021/01/06 12:12:18;;;;;;;2.53;1.83;;;14.10;64.80;;;;;;5047222;28;20043;-74
2021/01/06 12:15:19;;;;;;;2.92;1.75;;;14.10;64.80;;;;;;5046565;28;20421;-74
2021/01/06 12:18:03;;;;;;;2.55;1.80;;;14.10;64.80;;;;;;5050701;28;20034;-74
2021/01/06 12:20:51;;;;;;;2.72;2.00;;;14.00;64.80;;;;;;5032951;28;20032;-74
2021/01/06 12:23:24;;;;;;;3.13;2.17;;;14.10;64.80;;;;;;5049779;28;20107;-73
2021/01/06 12:25:58;;;;;;;2.25;1.98;;;14.10;64.80;;;;;;5021649;28;20090;-74
2021/01/06 12:28:38;;;;;;;2.33;1.70;;;14.00;64.80;;;;;;5044511;28;20032;-74
2021/01/06 12:31:51;;;;;;;2.15;1.58;;;14.10;64.80;;;;;;5016690;28;20037;-74
2021/01/06 12:34:29;;;;;;;1.42;1.30;;;14.10;64.80;;;;;;5028960;28;20628;-74
2021/01/06 12:37:13;;;;;;;2.63;2.10;;;14.00;64.70;;;;;;5031808;28;20056;-75
2021/01/06 12:40:21;;;;;;;2.53;1.73;;;14.10;64.80;;;;;;5047128;28;20033;-74
2021/01/06 12:42:54;;;;;;;2.15;1.60;;;14.10;64.80;;;;;;5050260;28;20036;-74
2021/01/06 12:45:24;;;;;;;2.40;1.85;;;14.10;64.80;;;;;;5048410;28;20036;-74
2021/01/06 12:48:16;;;;;;;2.03;1.60;;;14.10;64.80;;;;;;5050990;28;20032;-74
2021/01/06 12:51:24;;;;;;;2.30;1.70;;;14.10;64.80;;;;;;5048002;28;20043;-74
2021/01/06 12:54:13;;;;;;;2.13;1.45;;;14.10;64.80;;;;;;4950046;28;20111;-74
2021/01/06 12:56:50;;;;;;;2.22;1.70;;;14.00;64.80;;;;;;5032004;28;20086;-74
2021/01/06 12:59:26;;;;;;;2.67;1.38;;;14.10;64.80;;;;;;5048707;28;20082;-74
2021/01/06 13:01:58;;;;;;;3.35;2.15;;;14.10;64.80;;;;;;5043780;28;20025;-74
2021/01/06 13:04:38;;;;;;;2.80;1.90;;;14.10;64.80;;;;;;5032996;28;20115;-74
2021/01/06 13:07:14;;;;;;;2.00;1.52;;;14.10;64.80;;;;;;5042599;28;20801;-74
2021/01/06 13:09:49;;;;;;;2.70;1.90;;;14.10;64.80;;;;;;5044345;28;20052;-73
2021/01/06 13:12:57;;;;;;;3.28;1.60;;;14.10;64.90;;;;;;5048618;28;20106;-74
2021/01/06 13:15:56;;;;;;;2.45;1.73;;;14.00;64.90;;;;;;5046375;28;20036;-75
2021/01/06 13:18:45;;;;;;;2.42;1.45;;;14.10;64.90;;;;;;5040579;28;20040;-74
2021/01/06 13:22:06;;;;;;;2.15;1.73;;;14.00;64.90;;;;;;5031225;28;20033;-74
2021/01/06 13:24:34;;;;;;;2.17;1.88;;;14.00;65.00;;;;;;5040267;28;20025;-74
2021/01/06 13:27:32;;;;;;;2.45;1.77;;;14.00;65.00;;;;;;5023545;28;20060;-74
2021/01/06 13:30:15;;;;;;;2.27;1.70;;;14.00;65.00;;;;;;5017454;28;20040;-75
2021/01/06 13:32:59;;;;;;;3.00;1.88;;;14.00;65.00;;;;;;5041566;28;20035;-74
2021/01/06 13:35:54;;;;;;;3.15;2.00;;;14.00;64.90;;;;;;5045607;28;20037;-74
2021/01/06 13:38:59;;;;;;;2.25;1.70;;;14.10;65.00;;;;;;5027686;28;20051;-75
2021/01/06 13:42:02;;;;;;;2.33;1.73;;;14.00;65.00;;;;;;5020000;28;20059;-75
2021/01/06 13:44:57;;;;;;;2.28;1.73;;;14.00;64.90;;;;;;5043706;28;20030;-75
2021/01/06 13:47:30;;;;;;;1.77;1.45;;;14.00;64.90;;;;;;5043481;28;21023;-75
2021/01/06 13:50:08;;;;;;;2.65;1.83;;;14.10;64.90;;;;;;5041891;28;20064;-74
2021/01/06 13:52:50;;;;;;;2.15;1.58;;;14.00;64.90;;;;;;5040593;28;20025;-74
2021/01/06 13:55:36;;;;;;;1.88;1.50;;;14.00;64.90;;;;;;5043448;28;20125;-73
2021/01/06 13:58:48;;;;;;;2.83;1.85;;;14.10;64.90;;;;;;5044644;28;20114;-73
2021/01/06 14:01:44;;;;;;;2.08;1.50;;;14.00;64.90;;;;;;4940855;28;20461;-73